createdAt,value
2022-10-17T00:00:26.406Z,17.43
2022-10-17T00:01:25.558Z,17.45
2022-10-17T00:02:25.585Z,17.45
2022-10-17T00:03:26.747Z,17.43
2022-10-17T00:04:26.977Z,17.43
2022-10-17T00:05:25.977Z,17.43
2022-10-17T00:06:26.132Z,17.43
2022-10-17T00:07:25.422Z,17.45
2022-10-17T00:08:27.421Z,17.45
2022-10-17T00:09:26.131Z,17.45
2022-10-17T00:10:27.520Z,17.47
2022-10-17T00:11:27.411Z,17.49
2022-10-17T00:12:25.483Z,17.49
2022-10-17T00:13:27.717Z,17.47
2022-10-17T00:14:26.755Z,17.51
2022-10-17T00:15:25.842Z,17.49
2022-10-17T00:16:25.990Z,17.49
2022-10-17T00:17:25.300Z,17.49
2022-10-17T00:18:26.214Z,17.49
2022-10-17T00:19:25.331Z,17.47
2022-10-17T00:20:25.443Z,17.51
2022-10-17T00:21:25.109Z,17.53
2022-10-17T00:22:27.417Z,17.51
2022-10-17T00:23:26.393Z,17.53
2022-10-17T00:24:25.474Z,17.53
2022-10-17T00:25:55.678Z,17.49
2022-10-17T00:26:25.733Z,17.51
2022-10-17T00:27:26.319Z,17.49
2022-10-17T00:28:27.198Z,17.49
2022-10-17T00:29:40.663Z,17.47
2022-10-17T00:30:25.242Z,17.47
2022-10-17T00:31:25.354Z,17.49
2022-10-17T00:32:25.669Z,17.49
2022-10-17T00:33:25.636Z,17.49
2022-10-17T00:34:26.376Z,17.49
2022-10-17T00:35:25.924Z,17.51
2022-10-17T00:36:25.007Z,17.47
2022-10-17T00:37:25.150Z,17.49
2022-10-17T00:38:25.290Z,17.46
2022-10-17T00:39:25.405Z,17.45
2022-10-17T00:40:26.705Z,17.45
2022-10-17T00:41:26.745Z,17.46
2022-10-17T00:42:25.119Z,17.49
2022-10-17T00:43:24.875Z,17.53
2022-10-17T00:44:24.996Z,17.51
2022-10-17T00:45:25.115Z,17.55
2022-10-17T00:46:25.294Z,17.57
2022-10-17T00:47:25.380Z,17.60
2022-10-17T00:48:25.531Z,17.62
2022-10-17T00:49:25.698Z,17.63
2022-10-17T00:50:24.751Z,17.63
2022-10-17T00:51:24.885Z,17.62
2022-10-17T00:52:24.931Z,17.63
2022-10-17T00:53:25.869Z,17.66
2022-10-17T00:54:26.003Z,17.68
2022-10-17T00:55:25.100Z,17.65
2022-10-17T00:56:25.249Z,17.66
2022-10-17T00:57:25.431Z,17.66
2022-10-17T00:58:25.528Z,17.63
2022-10-17T00:59:25.658Z,17.63
2022-10-17T01:00:25.790Z,17.68
2022-10-17T01:01:24.942Z,17.66
2022-10-17T01:02:25.090Z,17.68
2022-10-17T01:03:25.144Z,17.70
2022-10-17T01:04:25.219Z,17.70
2022-10-17T01:05:26.380Z,17.68
2022-10-17T01:06:25.448Z,17.68
2022-10-17T01:07:24.488Z,17.70
2022-10-17T01:08:26.710Z,17.76
2022-10-17T01:09:26.772Z,17.77
2022-10-17T01:10:24.845Z,17.77
2022-10-17T01:11:24.962Z,17.77
2022-10-17T01:12:25.435Z,17.74
2022-10-17T01:13:26.192Z,17.73
2022-10-17T01:14:26.590Z,17.73
2022-10-17T01:15:25.392Z,17.74
2022-10-17T01:16:24.439Z,17.74
2022-10-17T01:17:24.582Z,17.74
2022-10-17T01:18:25.707Z,17.74
2022-10-17T01:20:24.930Z,17.70
2022-10-17T01:21:25.042Z,17.73
2022-10-17T01:22:25.354Z,17.74
2022-10-17T01:23:25.299Z,17.73
2022-10-17T01:24:24.344Z,17.74
2022-10-17T01:25:25.734Z,17.73
2022-10-17T01:26:24.582Z,17.73
2022-10-17T01:27:24.663Z,17.73
2022-10-17T01:28:24.958Z,17.76
2022-10-17T01:29:24.923Z,17.74
2022-10-17T01:30:25.036Z,17.76
2022-10-17T01:31:26.216Z,17.76
2022-10-17T01:32:25.502Z,17.76
2022-10-17T01:33:24.298Z,17.77
2022-10-17T01:34:26.404Z,17.79
2022-10-17T01:35:25.566Z,17.79
2022-10-17T01:36:24.642Z,17.79
2022-10-17T01:37:24.937Z,17.76
2022-10-17T01:38:24.854Z,17.76
2022-10-17T01:39:26.923Z,17.73
2022-10-17T01:40:25.083Z,17.76
2022-10-17T01:41:24.137Z,17.76
2022-10-17T01:42:24.226Z,17.80
2022-10-17T01:43:24.345Z,17.79
2022-10-17T01:44:24.420Z,17.81
2022-10-17T01:45:24.544Z,17.81
2022-10-17T01:46:24.665Z,17.83
2022-10-17T01:47:24.917Z,17.79
2022-10-17T01:48:23.846Z,17.74
2022-10-17T01:49:23.974Z,17.71
2022-10-17T01:50:24.043Z,17.68
2022-10-17T01:51:24.168Z,17.65
2022-10-17T01:52:24.300Z,17.63
2022-10-17T01:53:24.428Z,17.60
2022-10-17T01:54:24.577Z,17.60
2022-10-17T01:55:26.737Z,17.60
2022-10-17T01:56:24.747Z,17.63
2022-10-17T01:57:23.827Z,17.62
2022-10-17T01:58:25.998Z,17.62
2022-10-17T01:59:26.117Z,17.62
2022-10-17T02:00:24.124Z,17.62
2022-10-17T02:01:25.293Z,17.62
2022-10-17T02:02:26.433Z,17.63
2022-10-17T02:03:25.696Z,17.66
2022-10-17T02:04:24.767Z,17.65
2022-10-17T02:05:24.889Z,17.70
2022-10-17T02:06:24.979Z,17.71
2022-10-17T02:07:25.368Z,17.76
2022-10-17T02:08:26.270Z,17.76
2022-10-17T02:09:26.403Z,17.76
2022-10-17T02:10:24.452Z,17.74
2022-10-17T02:11:25.664Z,17.76
2022-10-17T02:12:23.681Z,17.77
2022-10-17T02:13:23.800Z,17.77
2022-10-17T02:14:24.960Z,17.77
2022-10-17T02:15:24.041Z,17.80
2022-10-17T02:16:24.121Z,17.83
2022-10-17T02:17:24.273Z,17.83
2022-10-17T02:18:25.378Z,17.84
2022-10-17T02:19:24.435Z,17.83
2022-10-17T02:20:23.532Z,17.83
2022-10-17T02:21:23.661Z,17.84
2022-10-17T02:22:24.833Z,17.89
2022-10-17T02:23:23.886Z,17.87
2022-10-17T02:24:25.003Z,17.86
2022-10-17T02:25:25.119Z,17.84
2022-10-17T02:26:24.195Z,17.81
2022-10-17T02:27:24.233Z,17.80
2022-10-17T02:28:23.985Z,17.79
2022-10-17T02:29:23.490Z,17.76
2022-10-17T02:30:23.608Z,17.74
2022-10-17T02:31:23.683Z,17.74
2022-10-17T02:32:23.782Z,17.73
2022-10-17T02:33:23.866Z,17.71
2022-10-17T02:34:24.008Z,17.70
2022-10-17T02:35:38.529Z,17.65
2022-10-17T02:36:24.114Z,17.66
2022-10-17T02:37:23.148Z,17.62
2022-10-17T02:38:25.303Z,17.62
2022-10-17T02:39:23.324Z,17.62
2022-10-17T02:40:23.634Z,17.58
2022-10-17T02:41:23.578Z,17.57
2022-10-17T02:42:23.605Z,17.51
2022-10-17T02:43:24.717Z,17.47
2022-10-17T02:44:23.818Z,17.51
2022-10-17T02:45:23.887Z,17.51
2022-10-17T02:46:23.993Z,17.49
2022-10-17T02:47:23.064Z,17.49
2022-10-17T02:48:23.189Z,17.47
2022-10-17T02:49:23.288Z,17.49
2022-10-17T02:50:23.444Z,17.49
2022-10-17T02:51:23.546Z,17.53
2022-10-17T02:52:23.608Z,17.53
2022-10-17T02:53:24.755Z,17.54
2022-10-17T02:54:24.874Z,17.54
2022-10-17T02:55:24.989Z,17.54
2022-10-17T02:56:24.355Z,17.53
2022-10-17T02:57:24.436Z,17.54
2022-10-17T02:58:23.519Z,17.55
2022-10-17T02:59:23.729Z,17.58
2022-10-17T03:00:24.833Z,17.58
2022-10-17T03:01:23.981Z,17.57
2022-10-17T03:02:25.107Z,17.58
2022-10-17T03:03:24.115Z,17.62
2022-10-17T03:04:27.250Z,17.62
2022-10-17T03:05:27.338Z,17.62
2022-10-17T03:06:24.424Z,17.66
2022-10-17T03:07:23.516Z,17.68
2022-10-17T03:08:24.581Z,17.66
2022-10-17T03:09:23.577Z,17.65
2022-10-17T03:10:23.678Z,17.66
2022-10-17T03:11:23.789Z,17.70
2022-10-17T03:12:23.939Z,17.68
2022-10-17T03:13:24.060Z,17.68
2022-10-17T03:14:24.251Z,17.66
2022-10-17T03:15:24.318Z,17.66
2022-10-17T03:16:24.396Z,17.65
2022-10-17T03:17:23.499Z,17.65
2022-10-17T03:18:24.626Z,17.62
2022-10-17T03:19:24.874Z,17.60
2022-10-17T03:20:22.771Z,17.62
2022-10-17T03:21:22.883Z,17.60
2022-10-17T03:22:22.720Z,17.58
2022-10-17T03:23:24.880Z,17.62
2022-10-17T03:24:25.001Z,17.60
2022-10-17T03:25:32.280Z,17.66
2022-10-17T03:26:23.124Z,17.66
2022-10-17T03:27:24.292Z,17.70
2022-10-17T03:28:24.411Z,17.68
2022-10-17T03:29:23.441Z,17.68
2022-10-17T03:30:23.467Z,17.68
2022-10-17T03:31:24.553Z,17.68
2022-10-17T03:32:23.632Z,17.65
2022-10-17T03:33:24.499Z,17.63
2022-10-17T03:34:24.636Z,17.63
2022-10-17T03:35:22.705Z,17.68
2022-10-17T03:36:24.943Z,17.68
2022-10-17T03:37:22.964Z,17.71
2022-10-17T03:38:24.171Z,17.71
2022-10-17T03:39:23.267Z,17.74
2022-10-17T03:40:22.363Z,17.73
2022-10-17T03:41:23.552Z,17.74
2022-10-17T03:42:24.791Z,17.76
2022-10-17T03:43:22.767Z,17.76
2022-10-17T03:44:23.963Z,17.74
2022-10-17T03:45:29.284Z,17.73
2022-10-17T03:46:23.214Z,17.73
2022-10-17T03:47:23.383Z,17.71
2022-10-17T03:48:23.555Z,17.74
2022-10-17T03:49:23.374Z,17.73
2022-10-17T03:50:24.546Z,17.74
2022-10-17T03:51:22.615Z,17.77
2022-10-17T03:52:23.764Z,17.76
2022-10-17T03:53:22.869Z,17.77
2022-10-17T03:54:23.041Z,17.79
2022-10-17T03:55:23.117Z,17.79
2022-10-17T03:56:22.188Z,17.76
2022-10-17T03:57:22.331Z,17.79
2022-10-17T03:58:22.465Z,17.79
2022-10-17T03:59:22.568Z,17.79
2022-10-17T04:00:31.053Z,17.77
2022-10-17T04:01:22.869Z,17.76
2022-10-17T04:02:22.939Z,17.74
2022-10-17T04:03:22.047Z,17.77
2022-10-17T04:04:23.199Z,17.77
2022-10-17T04:05:22.290Z,17.77
2022-10-17T04:06:22.443Z,17.79
2022-10-17T04:07:23.631Z,17.81
2022-10-17T04:08:22.632Z,17.83
2022-10-17T04:09:22.758Z,17.84
2022-10-17T04:10:23.897Z,17.86
2022-10-17T04:11:24.047Z,17.84
2022-10-17T04:12:24.163Z,17.83
2022-10-17T04:13:23.249Z,17.83
2022-10-17T04:14:23.369Z,17.83
2022-10-17T04:15:22.489Z,17.84
2022-10-17T04:16:22.600Z,17.86
2022-10-17T04:17:23.839Z,17.83
2022-10-17T04:18:23.907Z,17.83
2022-10-17T04:19:24.035Z,17.83
2022-10-17T04:20:22.090Z,17.84
2022-10-17T04:21:22.221Z,17.83
2022-10-17T04:22:22.353Z,17.81
2022-10-17T04:23:22.788Z,17.79
2022-10-17T04:24:22.589Z,17.79
2022-10-17T04:25:22.713Z,17.77
2022-10-17T04:26:22.817Z,17.77
2022-10-17T04:27:21.933Z,17.74
2022-10-17T04:28:24.345Z,17.73
2022-10-17T04:29:23.197Z,17.70
2022-10-17T04:30:22.288Z,17.66
2022-10-17T04:31:36.903Z,17.60
2022-10-17T04:32:22.527Z,17.57
2022-10-17T04:33:22.611Z,17.55
2022-10-17T04:34:23.773Z,17.47
2022-10-17T04:35:36.609Z,17.43
2022-10-17T04:36:22.195Z,17.45
2022-10-17T04:37:22.296Z,17.38
2022-10-17T04:38:27.609Z,17.35
2022-10-17T04:39:23.554Z,17.32
2022-10-17T04:40:23.746Z,17.35
2022-10-17T04:41:21.735Z,17.33
2022-10-17T04:42:21.844Z,17.28
2022-10-17T04:43:21.616Z,17.35
2022-10-17T04:44:21.702Z,17.35
2022-10-17T04:45:22.005Z,17.30
2022-10-17T04:46:22.056Z,17.27
2022-10-17T04:47:21.933Z,17.30
2022-10-17T04:48:22.019Z,17.30
2022-10-17T04:49:23.063Z,17.30
2022-10-17T04:50:22.176Z,17.32
2022-10-17T04:51:24.608Z,17.33
2022-10-17T04:52:26.750Z,17.33
2022-10-17T04:53:22.456Z,17.32
2022-10-17T04:54:24.631Z,17.22
2022-10-17T04:55:22.638Z,17.21
2022-10-17T04:56:23.813Z,17.22
2022-10-17T04:57:22.828Z,17.18
2022-10-17T04:58:21.438Z,17.21
2022-10-17T04:59:23.026Z,17.18
2022-10-17T05:00:23.109Z,17.21
2022-10-17T05:01:22.189Z,17.17
2022-10-17T05:02:22.276Z,17.18
2022-10-17T05:03:22.387Z,17.20
2022-10-17T05:04:24.775Z,17.21
2022-10-17T05:05:23.666Z,17.20
2022-10-17T05:06:21.684Z,17.21
2022-10-17T05:07:21.776Z,17.22
2022-10-17T05:08:24.007Z,17.20
2022-10-17T05:09:36.540Z,17.17
2022-10-17T05:10:22.163Z,17.15
2022-10-17T05:11:21.233Z,17.12
2022-10-17T05:12:23.365Z,17.10
2022-10-17T05:13:21.458Z,17.10
2022-10-17T05:14:21.662Z,17.05
2022-10-17T05:15:22.720Z,17.05
2022-10-17T05:16:21.812Z,17.06
2022-10-17T05:17:22.922Z,17.00
2022-10-17T05:18:22.044Z,17.03
2022-10-17T05:19:21.141Z,17.02
2022-10-17T05:20:21.329Z,16.99
2022-10-17T05:21:21.494Z,16.96
2022-10-17T05:22:21.513Z,16.91
2022-10-17T05:23:21.646Z,16.88
2022-10-17T05:24:21.782Z,16.84
2022-10-17T05:25:22.443Z,16.84
2022-10-17T05:26:21.012Z,16.82
2022-10-17T05:27:21.137Z,16.85
2022-10-17T05:28:22.315Z,16.82
2022-10-17T05:29:22.424Z,16.84
2022-10-17T05:30:22.625Z,16.82
2022-10-17T05:31:22.676Z,16.80
2022-10-17T05:32:22.803Z,16.77
2022-10-17T05:33:22.917Z,16.77
2022-10-17T05:34:22.011Z,16.72
2022-10-17T05:35:22.305Z,16.70
2022-10-17T05:36:21.274Z,16.69
2022-10-17T05:37:21.408Z,16.65
2022-10-17T05:38:22.545Z,16.63
2022-10-17T05:39:21.633Z,16.65
2022-10-17T05:40:21.791Z,16.60
2022-10-17T05:41:20.836Z,16.57
2022-10-17T05:42:22.146Z,16.55
2022-10-17T05:43:21.123Z,16.51
2022-10-17T05:44:21.245Z,16.48
2022-10-17T05:45:21.400Z,16.48
2022-10-17T05:46:21.537Z,16.47
2022-10-17T05:47:21.676Z,16.44
2022-10-17T05:48:20.835Z,16.42
2022-10-17T05:49:32.670Z,16.41
2022-10-17T05:50:22.056Z,16.41
2022-10-17T05:51:21.193Z,16.40
2022-10-17T05:52:21.333Z,16.40
2022-10-17T05:53:21.505Z,16.40
2022-10-17T05:54:20.621Z,16.41
2022-10-17T05:55:22.787Z,16.36
2022-10-17T05:56:20.846Z,16.34
2022-10-17T05:57:21.998Z,16.32
2022-10-17T05:58:22.395Z,16.33
2022-10-17T05:59:23.320Z,16.33
2022-10-17T06:00:22.367Z,16.33
2022-10-17T06:01:22.485Z,16.29
2022-10-17T06:02:22.665Z,16.32
2022-10-17T06:03:22.722Z,16.26
2022-10-17T06:04:20.883Z,16.29
2022-10-17T06:05:23.999Z,16.26
2022-10-17T06:06:22.144Z,16.26
2022-10-17T06:07:21.118Z,16.26
2022-10-17T06:08:21.243Z,16.23
2022-10-17T06:09:20.355Z,16.18
2022-10-17T06:10:22.575Z,16.18
2022-10-17T06:11:22.731Z,16.18
2022-10-17T06:12:20.780Z,16.16
2022-10-17T06:13:20.935Z,16.17
2022-10-17T06:14:21.069Z,16.13
2022-10-17T06:15:21.275Z,16.10
2022-10-17T06:16:20.345Z,16.07
2022-10-17T06:17:20.487Z,16.06
2022-10-17T06:18:21.537Z,16.04
2022-10-17T06:19:20.732Z,16.06
2022-10-17T06:20:20.890Z,16.07
2022-10-17T06:21:21.081Z,16.06
2022-10-17T06:22:21.188Z,16.06
2022-10-17T06:23:20.304Z,16.03
2022-10-17T06:24:20.399Z,16.01
2022-10-17T06:25:20.571Z,16.01
2022-10-17T06:26:20.663Z,15.98
2022-10-17T06:27:20.806Z,15.98
2022-10-17T06:28:21.244Z,15.95
2022-10-17T06:29:21.111Z,15.92
2022-10-17T06:30:20.157Z,15.92
2022-10-17T06:31:20.268Z,15.93
2022-10-17T06:32:20.393Z,15.95
2022-10-17T06:33:20.532Z,15.91
2022-10-17T06:34:20.702Z,15.91
2022-10-17T06:35:20.806Z,15.89
2022-10-17T06:36:20.978Z,15.88
2022-10-17T06:37:20.030Z,15.86
2022-10-17T06:38:20.131Z,15.85
2022-10-17T06:39:20.283Z,15.86
2022-10-17T06:40:20.420Z,15.86
2022-10-17T06:41:20.520Z,15.84
2022-10-17T06:42:20.655Z,15.85
2022-10-17T06:43:25.566Z,15.89
2022-10-17T06:44:20.865Z,15.92
2022-10-17T06:45:19.990Z,15.93
2022-10-17T06:46:20.163Z,15.92
2022-10-17T06:47:20.336Z,15.92
2022-10-17T06:48:20.403Z,15.95
2022-10-17T06:49:20.545Z,15.95
2022-10-17T06:50:20.655Z,15.99
2022-10-17T06:51:20.839Z,15.98
2022-10-17T06:52:19.862Z,16.01
2022-10-17T06:53:19.993Z,15.99
2022-10-17T06:54:20.123Z,16.01
2022-10-17T06:55:23.009Z,15.99
2022-10-17T06:56:20.374Z,15.99
2022-10-17T06:57:20.518Z,16.04
2022-10-17T06:58:20.614Z,16.07
2022-10-17T06:59:19.690Z,16.08
2022-10-17T07:00:19.829Z,16.13
2022-10-17T07:01:19.945Z,16.16
2022-10-17T07:02:20.084Z,16.22
2022-10-17T07:03:20.236Z,16.26
2022-10-17T07:04:20.344Z,16.27
2022-10-17T07:05:21.410Z,16.32
2022-10-17T07:06:20.598Z,16.30
2022-10-17T07:07:19.709Z,16.34
2022-10-17T07:08:19.819Z,16.41
2022-10-17T07:09:19.981Z,16.44
2022-10-17T07:10:20.045Z,16.48
2022-10-17T07:11:20.205Z,16.54
2022-10-17T07:12:20.326Z,16.59
2022-10-17T07:13:20.452Z,16.60
2022-10-17T07:14:19.570Z,16.65
2022-10-17T07:15:19.667Z,16.67
2022-10-17T07:16:19.776Z,16.69
2022-10-17T07:17:19.922Z,16.69
2022-10-17T07:18:20.015Z,16.73
2022-10-17T07:19:20.109Z,16.75
2022-10-17T07:20:20.237Z,16.78
2022-10-17T07:21:20.345Z,16.80
2022-10-17T07:22:19.451Z,16.82
2022-10-17T07:23:19.566Z,16.81
2022-10-17T07:24:19.671Z,16.82
2022-10-17T07:25:19.797Z,16.87
2022-10-17T07:26:19.933Z,16.91
2022-10-17T07:27:20.161Z,16.91
2022-10-17T07:28:20.171Z,16.92
2022-10-17T07:29:20.309Z,16.96
2022-10-17T07:30:19.399Z,16.95
2022-10-17T07:31:19.596Z,17.00
2022-10-17T07:32:19.696Z,16.99
2022-10-17T07:33:19.801Z,16.96
2022-10-17T07:34:19.955Z,17.00
2022-10-17T07:35:20.098Z,17.02
2022-10-17T07:36:20.184Z,17.03
2022-10-17T07:37:20.342Z,17.03
2022-10-17T07:38:19.414Z,17.00
2022-10-17T07:39:19.564Z,17.00
2022-10-17T07:40:19.673Z,16.99
2022-10-17T07:41:21.823Z,16.99
2022-10-17T07:42:20.001Z,16.99
2022-10-17T07:43:20.081Z,16.98
2022-10-17T07:44:19.182Z,16.99
2022-10-17T07:45:19.385Z,16.98
2022-10-17T07:46:19.448Z,16.98
2022-10-17T07:47:19.592Z,16.98
2022-10-17T07:48:19.759Z,16.98
2022-10-17T07:49:19.862Z,16.98
2022-10-17T07:50:19.983Z,16.98
2022-10-17T07:51:19.095Z,16.98
2022-10-17T07:52:20.245Z,17.00
2022-10-17T07:53:20.469Z,17.00
2022-10-17T07:54:19.458Z,17.02
2022-10-17T07:55:19.619Z,17.02
2022-10-17T07:56:19.685Z,17.05
2022-10-17T07:57:19.821Z,17.03
2022-10-17T07:58:18.936Z,17.09
2022-10-17T07:59:20.197Z,17.09
2022-10-17T08:00:20.208Z,17.06
2022-10-17T08:01:19.313Z,17.09
2022-10-17T08:02:19.425Z,17.14
2022-10-17T08:03:19.565Z,17.12
2022-10-17T08:04:19.707Z,17.14
2022-10-17T08:05:19.885Z,17.17
2022-10-17T08:06:18.961Z,17.20
2022-10-17T08:07:23.087Z,17.18
2022-10-17T08:08:20.216Z,17.21
2022-10-17T08:09:19.349Z,17.25
2022-10-17T08:10:19.485Z,17.27
2022-10-17T08:11:19.665Z,17.28
2022-10-17T08:12:18.755Z,17.35
2022-10-17T08:13:18.873Z,17.38
2022-10-17T08:14:19.006Z,17.40
2022-10-17T08:15:19.158Z,17.43
2022-10-17T08:16:19.294Z,17.46
2022-10-17T08:17:19.446Z,17.51
2022-10-17T08:18:19.566Z,17.54
2022-10-17T08:19:19.689Z,17.58
2022-10-17T08:20:19.807Z,17.63
2022-10-17T08:21:20.153Z,17.68
2022-10-17T08:22:19.057Z,17.74
2022-10-17T08:23:19.230Z,17.76
2022-10-17T08:24:19.298Z,17.80
2022-10-17T08:25:19.448Z,17.83
2022-10-17T08:26:18.561Z,17.87
2022-10-17T08:27:19.764Z,17.91
2022-10-17T08:28:19.953Z,17.94
2022-10-17T08:29:20.101Z,17.92
2022-10-17T08:30:20.166Z,17.95
2022-10-17T08:31:19.270Z,17.96
2022-10-17T08:32:19.402Z,17.98
2022-10-17T08:33:18.521Z,17.98
2022-10-17T08:34:21.796Z,17.96
2022-10-17T08:35:18.778Z,17.98
2022-10-17T08:36:18.960Z,17.99
2022-10-17T08:37:19.175Z,17.99
2022-10-17T08:38:21.115Z,18.01
2022-10-17T08:39:19.420Z,18.02
2022-10-17T08:40:19.262Z,18.07
2022-10-17T08:41:18.659Z,18.11
2022-10-17T08:42:18.815Z,18.13
2022-10-17T08:43:19.011Z,18.13
2022-10-17T08:44:19.104Z,18.11
2022-10-17T08:45:19.224Z,18.13
2022-10-17T08:46:18.380Z,18.13
2022-10-17T08:47:18.439Z,18.10
2022-10-17T08:48:18.549Z,18.19
2022-10-17T08:49:18.725Z,18.17
2022-10-17T08:50:18.892Z,18.19
2022-10-17T08:51:19.003Z,18.20
2022-10-17T08:52:19.133Z,18.21
2022-10-17T08:53:19.296Z,18.26
2022-10-17T08:54:18.406Z,18.26
2022-10-17T08:56:19.844Z,18.28
2022-10-17T08:57:20.939Z,18.31
2022-10-17T08:58:19.044Z,18.32
2022-10-17T08:59:19.107Z,18.35
2022-10-17T09:00:18.186Z,18.35
2022-10-17T09:01:19.373Z,18.38
2022-10-17T09:02:18.539Z,18.41
2022-10-17T09:03:19.773Z,18.44
2022-10-17T09:04:19.880Z,18.51
2022-10-17T09:05:22.459Z,18.51
2022-10-17T09:06:19.032Z,18.54
2022-10-17T09:07:19.189Z,18.59
2022-10-17T09:08:19.408Z,18.60
2022-10-17T09:09:18.567Z,18.64
2022-10-17T09:10:18.587Z,18.64
2022-10-17T09:11:19.766Z,18.68
2022-10-17T09:12:19.885Z,18.72
2022-10-17T09:13:18.989Z,18.75
2022-10-17T09:14:20.168Z,18.75
2022-10-17T09:15:19.240Z,18.78
2022-10-17T09:16:18.325Z,18.84
2022-10-17T09:17:19.530Z,18.87
2022-10-17T09:18:21.105Z,18.90
2022-10-17T09:19:19.775Z,18.91
2022-10-17T09:20:19.006Z,18.93
2022-10-17T09:21:18.970Z,18.97
2022-10-17T09:22:19.108Z,19.01
2022-10-17T09:23:18.198Z,19.02
2022-10-17T09:24:19.429Z,18.99
2022-10-17T09:25:19.587Z,19.02
2022-10-17T09:26:18.621Z,19.06
2022-10-17T09:27:17.709Z,19.07
2022-10-17T09:28:18.888Z,19.09
2022-10-17T09:29:18.006Z,19.13
2022-10-17T09:30:33.491Z,19.15
2022-10-17T09:31:20.519Z,19.15
2022-10-17T09:32:19.456Z,19.13
2022-10-17T09:33:28.560Z,19.16
2022-10-17T09:34:24.004Z,19.15
2022-10-17T09:35:18.841Z,19.20
2022-10-17T09:36:19.930Z,19.21
2022-10-17T09:37:18.136Z,19.21
2022-10-17T09:38:19.248Z,19.23
2022-10-17T09:39:18.352Z,19.24
2022-10-17T09:40:19.490Z,19.27
2022-10-17T09:41:43.782Z,19.28
2022-10-17T09:42:18.702Z,19.25
2022-10-17T09:43:19.862Z,19.28
2022-10-17T09:44:17.907Z,19.30
2022-10-17T09:45:18.012Z,19.30
2022-10-17T09:46:19.201Z,19.35
2022-10-17T09:47:19.362Z,19.39
2022-10-17T09:48:19.500Z,19.42
2022-10-17T09:49:17.583Z,19.43
2022-10-17T09:50:19.736Z,19.46
2022-10-17T09:51:25.828Z,19.47
2022-10-17T09:52:18.940Z,19.50
2022-10-17T09:53:18.113Z,19.53
2022-10-17T09:54:18.184Z,19.53
2022-10-17T09:55:18.317Z,19.55
2022-10-17T09:56:17.432Z,19.55
2022-10-17T09:57:17.551Z,19.58
2022-10-17T09:58:17.688Z,19.61
2022-10-17T09:59:17.965Z,19.62
2022-10-17T10:00:17.947Z,19.64
2022-10-17T10:01:21.097Z,19.64
2022-10-17T10:02:19.237Z,19.67
2022-10-17T10:03:18.387Z,19.68
2022-10-17T10:04:17.474Z,19.71
2022-10-17T10:05:17.858Z,19.72
2022-10-17T10:06:17.725Z,19.76
2022-10-17T10:07:17.845Z,19.80
2022-10-17T10:08:18.018Z,19.83
2022-10-17T10:09:18.118Z,19.86
2022-10-17T10:10:19.302Z,19.90
2022-10-17T10:11:19.414Z,19.94
2022-10-17T10:12:19.534Z,19.98
2022-10-17T10:13:19.669Z,19.98
2022-10-17T10:14:18.727Z,20.02
2022-10-17T10:15:18.851Z,20.04
2022-10-17T10:16:17.998Z,20.08
2022-10-17T10:17:19.085Z,20.12
2022-10-17T10:18:18.214Z,20.16
2022-10-17T10:19:18.284Z,20.20
2022-10-17T10:20:20.457Z,20.20
2022-10-17T10:21:18.535Z,20.25
2022-10-17T10:22:18.615Z,20.26
2022-10-17T10:23:18.736Z,20.31
2022-10-17T10:24:17.847Z,20.31
2022-10-17T10:25:18.997Z,20.33
2022-10-17T10:26:20.963Z,20.34
2022-10-17T10:27:19.269Z,20.37
2022-10-17T10:28:18.298Z,20.38
2022-10-17T10:29:18.383Z,20.38
2022-10-17T10:30:18.476Z,20.40
2022-10-17T10:31:17.509Z,20.40
2022-10-17T10:32:24.271Z,20.44
2022-10-17T10:33:18.765Z,20.48
2022-10-17T10:34:17.827Z,20.51
2022-10-17T10:35:17.909Z,20.53
2022-10-17T10:36:17.985Z,20.58
2022-10-17T10:37:17.229Z,20.64
2022-10-17T10:38:17.192Z,20.68
2022-10-17T10:39:17.151Z,20.69
2022-10-17T10:40:18.270Z,20.73
2022-10-17T10:41:19.382Z,20.73
2022-10-17T10:42:17.405Z,20.76
2022-10-17T10:43:20.594Z,20.78
2022-10-17T10:44:17.537Z,20.79
2022-10-17T10:45:35.960Z,20.79
2022-10-17T10:46:18.617Z,20.75
2022-10-17T10:47:16.661Z,20.78
2022-10-17T10:48:20.814Z,20.76
2022-10-17T10:49:17.865Z,20.78
2022-10-17T10:50:16.820Z,20.76
2022-10-17T10:51:16.885Z,20.81
2022-10-17T10:52:18.016Z,20.81
2022-10-17T10:53:18.108Z,20.82
2022-10-17T10:54:17.134Z,20.85
2022-10-17T10:55:17.221Z,20.85
2022-10-17T10:56:17.229Z,20.87
2022-10-17T10:57:18.316Z,20.87
2022-10-17T10:58:19.419Z,20.87
2022-10-17T10:59:17.394Z,20.88
2022-10-17T11:00:17.525Z,20.93
2022-10-17T11:01:18.749Z,20.88
2022-10-17T11:02:17.588Z,20.94
2022-10-17T11:03:17.618Z,20.96
2022-10-17T11:04:16.764Z,20.98
2022-10-17T11:05:16.704Z,21.01
2022-10-17T11:06:17.818Z,21.00
2022-10-17T11:07:16.836Z,21.00
2022-10-17T11:08:17.905Z,21.01
2022-10-17T11:09:16.986Z,21.05
2022-10-17T11:10:16.989Z,21.03
2022-10-17T11:11:17.023Z,21.06
2022-10-17T11:12:17.129Z,21.09
2022-10-17T11:13:17.083Z,21.08
2022-10-17T11:14:18.268Z,21.08
2022-10-17T11:15:17.211Z,21.12
2022-10-17T11:16:20.372Z,21.21
2022-10-17T11:17:17.354Z,21.22
2022-10-17T11:18:18.471Z,21.28
2022-10-17T11:19:18.465Z,21.28
2022-10-17T11:20:17.460Z,21.30
2022-10-17T11:21:17.518Z,21.30
2022-10-17T11:22:16.587Z,21.33
2022-10-17T11:23:16.671Z,21.31
2022-10-17T11:24:16.673Z,21.37
2022-10-17T11:25:16.712Z,21.40
2022-10-17T11:26:16.772Z,21.38
2022-10-17T11:27:16.823Z,21.42
2022-10-17T11:28:16.903Z,21.40
2022-10-17T11:29:16.977Z,21.38
2022-10-17T11:30:17.004Z,21.38
2022-10-17T11:31:17.046Z,21.36
2022-10-17T11:32:16.047Z,21.37
2022-10-17T11:33:17.163Z,21.34
2022-10-17T11:34:17.203Z,21.34
2022-10-17T11:35:16.223Z,21.36
2022-10-17T11:36:31.805Z,21.36
2022-10-17T11:37:18.418Z,21.38
2022-10-17T11:38:16.435Z,21.38
2022-10-17T11:39:17.529Z,21.42
2022-10-17T11:40:19.196Z,21.43
2022-10-17T11:41:18.564Z,21.48
2022-10-17T11:42:17.620Z,21.53
2022-10-17T11:43:16.632Z,21.55
2022-10-17T11:44:16.699Z,21.61
2022-10-17T11:45:17.874Z,21.63
2022-10-17T11:46:16.770Z,21.64
2022-10-17T11:47:16.824Z,21.67
2022-10-17T11:48:16.878Z,21.68
2022-10-17T11:49:20.077Z,21.66
2022-10-17T11:52:31.598Z,21.70
2022-10-17T11:53:17.072Z,21.71
2022-10-17T11:54:16.122Z,21.73
2022-10-17T11:55:16.208Z,21.79
2022-10-17T11:56:16.237Z,21.81
2022-10-17T11:57:16.329Z,21.82
2022-10-17T11:58:16.408Z,21.83
2022-10-17T11:59:16.403Z,21.83
2022-10-17T12:00:16.513Z,21.74
2022-10-17T12:01:16.513Z,21.71
2022-10-17T12:02:16.676Z,21.67
2022-10-17T12:03:16.560Z,21.66
2022-10-17T12:04:16.664Z,21.61
2022-10-17T12:05:18.632Z,21.61
2022-10-17T12:06:16.672Z,21.58
2022-10-17T12:07:16.730Z,21.61
2022-10-17T12:08:15.709Z,21.63
2022-10-17T12:09:16.816Z,21.59
2022-10-17T12:10:17.852Z,21.63
2022-10-17T12:11:15.806Z,21.64
2022-10-17T12:12:17.956Z,21.67
2022-10-17T12:13:17.921Z,21.73
2022-10-17T12:14:15.913Z,21.77
2022-10-17T12:15:16.956Z,21.82
2022-10-17T12:16:17.684Z,21.90
2022-10-17T12:17:17.035Z,21.91
2022-10-17T12:18:18.198Z,21.91
2022-10-17T12:19:17.077Z,21.93
2022-10-17T12:20:17.126Z,21.93
2022-10-17T12:21:18.796Z,21.91
2022-10-17T12:22:17.224Z,21.89
2022-10-17T12:23:18.316Z,21.86
2022-10-17T12:24:19.313Z,21.79
2022-10-17T12:25:18.332Z,21.77
2022-10-17T12:26:18.346Z,21.74
2022-10-17T12:27:17.830Z,21.71
2022-10-17T12:28:15.381Z,21.70
2022-10-17T12:29:15.480Z,21.67
2022-10-17T12:30:15.494Z,21.67
2022-10-17T12:31:16.610Z,21.63
2022-10-17T12:32:15.602Z,21.64
2022-10-17T12:33:16.690Z,21.67
2022-10-17T12:34:17.131Z,21.68
2022-10-17T12:35:16.828Z,21.66
2022-10-17T12:36:17.808Z,21.66
2022-10-17T12:37:15.986Z,21.66
2022-10-17T12:38:16.951Z,21.64
2022-10-17T12:39:15.983Z,21.61
2022-10-17T12:40:16.206Z,21.58
2022-10-17T12:41:16.680Z,21.58
2022-10-17T12:42:17.171Z,21.63
2022-10-17T12:43:17.275Z,21.56
2022-10-17T12:44:15.555Z,21.58
2022-10-17T12:45:15.297Z,21.58
2022-10-17T12:46:15.471Z,21.56
2022-10-17T12:47:17.410Z,21.52
2022-10-17T12:48:16.653Z,21.53
2022-10-17T12:49:15.510Z,21.53
2022-10-17T12:50:16.608Z,21.53
2022-10-17T12:51:35.768Z,21.53
2022-10-17T12:52:16.861Z,21.53
2022-10-17T12:53:18.463Z,21.51
2022-10-17T12:54:15.886Z,21.51
2022-10-17T12:55:15.945Z,21.46
2022-10-17T12:56:17.060Z,21.46